sensor_id;sensor_type;location;lat;lon;timestamp;temperature;humidity
71627;DHT22;59475;52.464;13.590;2023-02-23T00:00:29;4.18;88.66
71627;DHT22;59475;52.464;13.590;2023-02-23T00:03:00;4.17;88.79
71627;DHT22;59475;52.464;13.590;2023-02-23T00:05:31;4.16;88.81
71627;DHT22;59475;52.464;13.590;2023-02-23T00:07:59;4.16;88.68
71627;DHT22;59475;52.464;13.590;2023-02-23T00:10:26;4.17;88.60
71627;DHT22;59475;52.464;13.590;2023-02-23T00:12:56;4.17;88.63
71627;DHT22;59475;52.464;13.590;2023-02-23T00:15:22;4.21;88.71
71627;DHT22;59475;52.464;13.590;2023-02-23T00:17:53;4.20;88.64
71627;DHT22;59475;52.464;13.590;2023-02-23T00:20:20;4.16;88.75
71627;DHT22;59475;52.464;13.590;2023-02-23T00:22:51;4.14;88.74
71627;DHT22;59475;52.464;13.590;2023-02-23T00:25:17;4.18;88.71
71627;DHT22;59475;52.464;13.590;2023-02-23T00:27:43;4.10;88.81
71627;DHT22;59475;52.464;13.590;2023-02-23T00:30:11;4.14;88.74
71627;DHT22;59475;52.464;13.590;2023-02-23T00:32:37;4.11;88.84
71627;DHT22;59475;52.464;13.590;2023-02-23T00:35:02;4.10;88.81
71627;DHT22;59475;52.464;13.590;2023-02-23T00:37:28;4.10;88.67
71627;DHT22;59475;52.464;13.590;2023-02-23T00:39:54;4.14;88.74
71627;DHT22;59475;52.464;13.590;2023-02-23T00:42:21;4.09;88.84
71627;DHT22;59475;52.464;13.590;2023-02-23T00:44:46;4.10;88.84
71627;DHT22;59475;52.464;13.590;2023-02-23T00:47:13;4.10;88.80
71627;DHT22;59475;52.464;13.590;2023-02-23T00:49:38;4.10;88.85
71627;DHT22;59475;52.464;13.590;2023-02-23T00:52:04;4.06;88.87
71627;DHT22;59475;52.464;13.590;2023-02-23T00:54:29;4.09;88.79
71627;DHT22;59475;52.464;13.590;2023-02-23T00:56:55;4.06;88.92
71627;DHT22;59475;52.464;13.590;2023-02-23T00:59:20;4.06;88.89
71627;DHT22;59475;52.464;13.590;2023-02-23T01:01:46;4.04;89.07
71627;DHT22;59475;52.464;13.590;2023-02-23T01:04:12;4.02;88.89
71627;DHT22;59475;52.464;13.590;2023-02-23T01:06:38;4.09;88.74
71627;DHT22;59475;52.464;13.590;2023-02-23T01:09:10;4.07;88.72
71627;DHT22;59475;52.464;13.590;2023-02-23T01:11:35;4.04;88.88
71627;DHT22;59475;52.464;13.590;2023-02-23T01:14:01;3.99;89.01
71627;DHT22;59475;52.464;13.590;2023-02-23T01:16:29;3.99;89.02
71627;DHT22;59475;52.464;13.590;2023-02-23T01:18:57;4.02;89.10
71627;DHT22;59475;52.464;13.590;2023-02-23T01:21:37;3.97;89.08
71627;DHT22;59475;52.464;13.590;2023-02-23T01:24:04;3.97;89.01
71627;DHT22;59475;52.464;13.590;2023-02-23T01:26:32;3.99;89.03
71627;DHT22;59475;52.464;13.590;2023-02-23T01:29:00;3.99;88.84
71627;DHT22;59475;52.464;13.590;2023-02-23T01:31:27;3.99;88.93
71627;DHT22;59475;52.464;13.590;2023-02-23T01:33:54;4.00;88.98
71627;DHT22;59475;52.464;13.590;2023-02-23T01:36:20;3.99;88.86
71627;DHT22;59475;52.464;13.590;2023-02-23T01:38:46;4.02;88.80
71627;DHT22;59475;52.464;13.590;2023-02-23T01:41:11;3.99;88.80
71627;DHT22;59475;52.464;13.590;2023-02-23T01:44:04;4.03;88.57
71627;DHT22;59475;52.464;13.590;2023-02-23T01:46:36;4.04;88.51
71627;DHT22;59475;52.464;13.590;2023-02-23T01:49:05;4.02;88.52
71627;DHT22;59475;52.464;13.590;2023-02-23T01:51:35;4.00;88.54
71627;DHT22;59475;52.464;13.590;2023-02-23T01:54:27;4.00;88.68
71627;DHT22;59475;52.464;13.590;2023-02-23T01:56:57;3.96;88.73
71627;DHT22;59475;52.464;13.590;2023-02-23T01:59:32;3.94;88.88
71627;DHT22;59475;52.464;13.590;2023-02-23T02:01:59;3.94;88.79
71627;DHT22;59475;52.464;13.590;2023-02-23T02:04:25;3.96;88.70
71627;DHT22;59475;52.464;13.590;2023-02-23T02:06:51;3.94;88.67
71627;DHT22;59475;52.464;13.590;2023-02-23T02:09:19;3.94;88.65
71627;DHT22;59475;52.464;13.590;2023-02-23T02:11:50;3.93;88.75
71627;DHT22;59475;52.464;13.590;2023-02-23T02:14:22;3.89;88.76
71627;DHT22;59475;52.464;13.590;2023-02-23T02:28:24;3.87;88.79
71627;DHT22;59475;52.464;13.590;2023-02-23T02:42:39;3.81;88.93
71627;DHT22;59475;52.464;13.590;2023-02-23T02:48:05;3.73;89.08
71627;DHT22;59475;52.464;13.590;2023-02-23T02:53:06;3.72;89.07
71627;DHT22;59475;52.464;13.590;2023-02-23T02:55:36;3.71;88.98
71627;DHT22;59475;52.464;13.590;2023-02-23T02:58:05;3.68;89.26
71627;DHT22;59475;52.464;13.590;2023-02-23T03:00:45;3.68;89.20
71627;DHT22;59475;52.464;13.590;2023-02-23T03:06:22;3.61;89.28
71627;DHT22;59475;52.464;13.590;2023-02-23T03:18:48;3.54;89.43
71627;DHT22;59475;52.464;13.590;2023-02-23T03:21:47;3.54;89.47
71627;DHT22;59475;52.464;13.590;2023-02-23T03:24:36;3.52;89.55
71627;DHT22;59475;52.464;13.590;2023-02-23T03:27:28;3.51;89.54
71627;DHT22;59475;52.464;13.590;2023-02-23T03:30:29;3.54;89.47
71627;DHT22;59475;52.464;13.590;2023-02-23T03:33:22;3.48;89.62
71627;DHT22;59475;52.464;13.590;2023-02-23T03:36:16;3.45;89.78
71627;DHT22;59475;52.464;13.590;2023-02-23T03:39:04;3.41;89.82
71627;DHT22;59475;52.464;13.590;2023-02-23T03:41:54;3.39;89.86
71627;DHT22;59475;52.464;13.590;2023-02-23T03:44:40;3.45;89.92
71627;DHT22;59475;52.464;13.590;2023-02-23T03:47:28;3.42;89.88
71627;DHT22;59475;52.464;13.590;2023-02-23T03:50:24;3.44;89.76
71627;DHT22;59475;52.464;13.590;2023-02-23T03:53:11;3.38;89.88
71627;DHT22;59475;52.464;13.590;2023-02-23T03:55:57;3.32;89.96
71627;DHT22;59475;52.464;13.590;2023-02-23T03:58:47;3.30;90.07
71627;DHT22;59475;52.464;13.590;2023-02-23T04:01:33;3.24;90.17
71627;DHT22;59475;52.464;13.590;2023-02-23T04:04:19;3.20;90.25
71627;DHT22;59475;52.464;13.590;2023-02-23T04:07:07;3.18;90.34
71627;DHT22;59475;52.464;13.590;2023-02-23T04:09:52;3.16;90.28
71627;DHT22;59475;52.464;13.590;2023-02-23T04:12:43;3.16;90.31
71627;DHT22;59475;52.464;13.590;2023-02-23T04:18:16;3.13;90.12
71627;DHT22;59475;52.464;13.590;2023-02-23T04:20:42;3.07;90.22
71627;DHT22;59475;52.464;13.590;2023-02-23T04:23:07;3.03;90.32
71627;DHT22;59475;52.464;13.590;2023-02-23T04:25:33;3.01;90.36
71627;DHT22;59475;52.464;13.590;2023-02-23T04:27:58;2.99;90.33
71627;DHT22;59475;52.464;13.590;2023-02-23T04:30:25;2.97;90.50
71627;DHT22;59475;52.464;13.590;2023-02-23T04:32:52;3.00;90.53
71627;DHT22;59475;52.464;13.590;2023-02-23T04:35:18;2.93;90.61
71627;DHT22;59475;52.464;13.590;2023-02-23T04:37:45;2.89;90.64
71627;DHT22;59475;52.464;13.590;2023-02-23T04:40:11;2.89;90.60
71627;DHT22;59475;52.464;13.590;2023-02-23T04:42:38;2.85;90.74
71627;DHT22;59475;52.464;13.590;2023-02-23T04:45:04;2.85;90.69
71627;DHT22;59475;52.464;13.590;2023-02-23T04:47:30;2.83;90.59
71627;DHT22;59475;52.464;13.590;2023-02-23T04:49:55;2.76;90.80
71627;DHT22;59475;52.464;13.590;2023-02-23T04:52:20;2.80;90.65
71627;DHT22;59475;52.464;13.590;2023-02-23T04:54:46;2.79;90.65
71627;DHT22;59475;52.464;13.590;2023-02-23T04:57:12;2.75;90.62
71627;DHT22;59475;52.464;13.590;2023-02-23T04:59:37;2.66;91.03
71627;DHT22;59475;52.464;13.590;2023-02-23T05:02:03;2.63;91.04
71627;DHT22;59475;52.464;13.590;2023-02-23T05:04:28;2.56;91.09
71627;DHT22;59475;52.464;13.590;2023-02-23T05:06:54;2.56;91.10
71627;DHT22;59475;52.464;13.590;2023-02-23T05:09:19;2.56;90.95
71627;DHT22;59475;52.464;13.590;2023-02-23T05:11:45;2.52;91.14
71627;DHT22;59475;52.464;13.590;2023-02-23T05:14:11;2.55;91.13
71627;DHT22;59475;52.464;13.590;2023-02-23T05:16:37;2.51;91.12
71627;DHT22;59475;52.464;13.590;2023-02-23T05:19:03;2.48;91.13
71627;DHT22;59475;52.464;13.590;2023-02-23T05:21:28;2.49;91.21
71627;DHT22;59475;52.464;13.590;2023-02-23T05:23:54;2.42;91.17
71627;DHT22;59475;52.464;13.590;2023-02-23T05:26:22;2.40;91.43
71627;DHT22;59475;52.464;13.590;2023-02-23T05:28:47;2.35;91.32
71627;DHT22;59475;52.464;13.590;2023-02-23T05:31:13;2.32;91.38
71627;DHT22;59475;52.464;13.590;2023-02-23T05:33:39;2.30;91.66
71627;DHT22;59475;52.464;13.590;2023-02-23T05:36:11;2.27;91.45
71627;DHT22;59475;52.464;13.590;2023-02-23T05:38:37;2.23;91.56
71627;DHT22;59475;52.464;13.590;2023-02-23T05:41:07;2.17;91.63
71627;DHT22;59475;52.464;13.590;2023-02-23T05:43:33;2.18;91.70
71627;DHT22;59475;52.464;13.590;2023-02-23T05:45:58;2.17;91.76
71627;DHT22;59475;52.464;13.590;2023-02-23T05:48:25;2.13;91.74
71627;DHT22;59475;52.464;13.590;2023-02-23T05:50:51;2.13;91.67
71627;DHT22;59475;52.464;13.590;2023-02-23T05:53:16;2.15;91.65
71627;DHT22;59475;52.464;13.590;2023-02-23T05:55:42;2.13;91.61
71627;DHT22;59475;52.464;13.590;2023-02-23T05:58:08;2.10;91.56
71627;DHT22;59475;52.464;13.590;2023-02-23T06:00:33;2.09;91.51
71627;DHT22;59475;52.464;13.590;2023-02-23T06:02:58;2.06;91.53
71627;DHT22;59475;52.464;13.590;2023-02-23T06:05:24;2.07;91.70
71627;DHT22;59475;52.464;13.590;2023-02-23T06:07:49;2.07;91.72
71627;DHT22;59475;52.464;13.590;2023-02-23T06:10:15;2.04;91.78
71627;DHT22;59475;52.464;13.590;2023-02-23T06:12:41;2.06;91.82
71627;DHT22;59475;52.464;13.590;2023-02-23T06:15:07;1.99;91.86
71627;DHT22;59475;52.464;13.590;2023-02-23T06:17:32;1.99;91.81
71627;DHT22;59475;52.464;13.590;2023-02-23T06:19:57;1.94;91.84
71627;DHT22;59475;52.464;13.590;2023-02-23T06:22:26;1.94;91.91
71627;DHT22;59475;52.464;13.590;2023-02-23T06:24:51;1.94;91.97
71627;DHT22;59475;52.464;13.590;2023-02-23T06:27:17;1.94;92.00
71627;DHT22;59475;52.464;13.590;2023-02-23T06:29:43;1.97;92.08
71627;DHT22;59475;52.464;13.590;2023-02-23T06:32:08;1.97;92.11
71627;DHT22;59475;52.464;13.590;2023-02-23T06:34:33;1.99;92.07
71627;DHT22;59475;52.464;13.590;2023-02-23T06:36:59;1.97;92.17
71627;DHT22;59475;52.464;13.590;2023-02-23T06:39:24;2.00;92.19
71627;DHT22;59475;52.464;13.590;2023-02-23T06:41:50;1.99;92.33
71627;DHT22;59475;52.464;13.590;2023-02-23T06:44:15;2.03;92.38
71627;DHT22;59475;52.464;13.590;2023-02-23T06:46:40;2.04;92.51
71627;DHT22;59475;52.464;13.590;2023-02-23T06:49:06;2.11;92.41
71627;DHT22;59475;52.464;13.590;2023-02-23T06:51:31;2.17;92.44
71627;DHT22;59475;52.464;13.590;2023-02-23T06:53:57;2.23;92.44
71627;DHT22;59475;52.464;13.590;2023-02-23T06:56:22;2.31;92.38
71627;DHT22;59475;52.464;13.590;2023-02-23T06:58:48;2.37;92.25
71627;DHT22;59475;52.464;13.590;2023-02-23T07:01:14;2.41;92.18
71627;DHT22;59475;52.464;13.590;2023-02-23T07:03:42;2.53;92.09
71627;DHT22;59475;52.464;13.590;2023-02-23T07:06:07;2.62;91.94
71627;DHT22;59475;52.464;13.590;2023-02-23T07:08:33;2.66;91.72
71627;DHT22;59475;52.464;13.590;2023-02-23T07:11:10;2.76;91.74
71627;DHT22;59475;52.464;13.590;2023-02-23T07:13:37;2.80;91.25
71627;DHT22;59475;52.464;13.590;2023-02-23T07:16:03;2.90;91.26
71627;DHT22;59475;52.464;13.590;2023-02-23T07:18:29;3.00;90.97
71627;DHT22;59475;52.464;13.590;2023-02-23T07:20:55;3.07;90.70
71627;DHT22;59475;52.464;13.590;2023-02-23T07:23:20;3.16;90.49
71627;DHT22;59475;52.464;13.590;2023-02-23T07:25:49;3.21;90.28
71627;DHT22;59475;52.464;13.590;2023-02-23T07:28:15;3.30;90.46
71627;DHT22;59475;52.464;13.590;2023-02-23T07:30:40;3.38;89.96
71627;DHT22;59475;52.464;13.590;2023-02-23T07:33:05;3.46;90.05
71627;DHT22;59475;52.464;13.590;2023-02-23T07:35:31;3.51;89.84
71627;DHT22;59475;52.464;13.590;2023-02-23T07:37:57;3.59;89.41
71627;DHT22;59475;52.464;13.590;2023-02-23T07:40:23;3.71;89.39
71627;DHT22;59475;52.464;13.590;2023-02-23T07:42:49;3.71;88.80
71627;DHT22;59475;52.464;13.590;2023-02-23T07:45:15;3.71;88.88
71627;DHT22;59475;52.464;13.590;2023-02-23T07:47:41;3.76;88.78
71627;DHT22;59475;52.464;13.590;2023-02-23T07:50:07;3.85;89.02
71627;DHT22;59475;52.464;13.590;2023-02-23T07:52:35;3.89;88.73
71627;DHT22;59475;52.464;13.590;2023-02-23T07:55:01;3.89;88.20
71627;DHT22;59475;52.464;13.590;2023-02-23T07:57:26;3.90;88.18
71627;DHT22;59475;52.464;13.590;2023-02-23T07:59:52;3.89;88.04
71627;DHT22;59475;52.464;13.590;2023-02-23T08:02:17;3.86;87.76
71627;DHT22;59475;52.464;13.590;2023-02-23T08:04:43;3.83;87.80
71627;DHT22;59475;52.464;13.590;2023-02-23T08:07:09;3.85;88.20
71627;DHT22;59475;52.464;13.590;2023-02-23T08:09:35;3.89;88.15
71627;DHT22;59475;52.464;13.590;2023-02-23T08:12:01;3.97;87.93
71627;DHT22;59475;52.464;13.590;2023-02-23T08:14:27;3.99;88.00
71627;DHT22;59475;52.464;13.590;2023-02-23T08:16:52;4.07;87.96
71627;DHT22;59475;52.464;13.590;2023-02-23T08:19:18;4.11;87.50
71627;DHT22;59475;52.464;13.590;2023-02-23T08:21:47;4.14;87.40
71627;DHT22;59475;52.464;13.590;2023-02-23T08:24:14;4.16;87.48
71627;DHT22;59475;52.464;13.590;2023-02-23T08:26:39;4.25;87.57
71627;DHT22;59475;52.464;13.590;2023-02-23T08:29:05;4.33;87.43
71627;DHT22;59475;52.464;13.590;2023-02-23T08:31:31;4.37;86.87
71627;DHT22;59475;52.464;13.590;2023-02-23T08:33:57;4.40;86.77
71627;DHT22;59475;52.464;13.590;2023-02-23T08:36:23;4.48;87.30
71627;DHT22;59475;52.464;13.590;2023-02-23T08:38:49;4.61;86.68
71627;DHT22;59475;52.464;13.590;2023-02-23T08:41:14;4.68;86.05
71627;DHT22;59475;52.464;13.590;2023-02-23T08:43:40;4.73;85.97
71627;DHT22;59475;52.464;13.590;2023-02-23T08:46:06;4.76;85.85
71627;DHT22;59475;52.464;13.590;2023-02-23T08:48:32;4.83;85.70
71627;DHT22;59475;52.464;13.590;2023-02-23T08:50:58;4.90;85.58
71627;DHT22;59475;52.464;13.590;2023-02-23T08:53:24;5.01;85.45
71627;DHT22;59475;52.464;13.590;2023-02-23T08:55:56;5.13;85.34
71627;DHT22;59475;52.464;13.590;2023-02-23T08:58:21;5.23;85.02
71627;DHT22;59475;52.464;13.590;2023-02-23T09:00:47;5.34;85.59
71627;DHT22;59475;52.464;13.590;2023-02-23T09:03:12;5.38;84.39
71627;DHT22;59475;52.464;13.590;2023-02-23T09:05:38;5.47;83.76
71627;DHT22;59475;52.464;13.590;2023-02-23T09:08:03;5.50;84.30
71627;DHT22;59475;52.464;13.590;2023-02-23T09:10:29;5.59;84.10
71627;DHT22;59475;52.464;13.590;2023-02-23T09:12:54;5.62;83.44
71627;DHT22;59475;52.464;13.590;2023-02-23T09:15:20;5.69;83.54
71627;DHT22;59475;52.464;13.590;2023-02-23T09:17:46;5.86;83.80
71627;DHT22;59475;52.464;13.590;2023-02-23T09:20:14;6.00;83.63
71627;DHT22;59475;52.464;13.590;2023-02-23T09:22:40;6.17;82.78
71627;DHT22;59475;52.464;13.590;2023-02-23T09:25:09;6.28;82.57
71627;DHT22;59475;52.464;13.590;2023-02-23T09:27:36;6.42;82.95
71627;DHT22;59475;52.464;13.590;2023-02-23T09:30:03;6.52;81.77
71627;DHT22;59475;52.464;13.590;2023-02-23T09:32:28;6.61;81.31
71627;DHT22;59475;52.464;13.590;2023-02-23T09:34:54;6.79;81.75
71627;DHT22;59475;52.464;13.590;2023-02-23T09:37:19;6.89;80.91
71627;DHT22;59475;52.464;13.590;2023-02-23T09:39:45;6.96;80.68
71627;DHT22;59475;52.464;13.590;2023-02-23T09:42:39;7.02;80.87
71627;DHT22;59475;52.464;13.590;2023-02-23T09:48:04;7.19;80.02
71627;DHT22;59475;52.464;13.590;2023-02-23T09:50:33;7.16;80.39
71627;DHT22;59475;52.464;13.590;2023-02-23T09:56:15;7.21;80.66
71627;DHT22;59475;52.464;13.590;2023-02-23T09:58:43;7.35;80.77
71627;DHT22;59475;52.464;13.590;2023-02-23T10:04:30;7.71;79.75
71627;DHT22;59475;52.464;13.590;2023-02-23T10:07:25;8.00;79.41
71627;DHT22;59475;52.464;13.590;2023-02-23T10:10:19;8.19;78.62
71627;DHT22;59475;52.464;13.590;2023-02-23T10:13:12;8.36;78.16
71627;DHT22;59475;52.464;13.590;2023-02-23T10:18:53;8.51;78.63
71627;DHT22;59475;52.464;13.590;2023-02-23T10:21:32;8.88;77.54
71627;DHT22;59475;52.464;13.590;2023-02-23T10:24:10;9.15;76.43
71627;DHT22;59475;52.464;13.590;2023-02-23T10:26:42;9.43;75.56
71627;DHT22;59475;52.464;13.590;2023-02-23T10:35:12;9.82;74.63
71627;DHT22;59475;52.464;13.590;2023-02-23T10:37:37;9.99;74.89
71627;DHT22;59475;52.464;13.590;2023-02-23T10:40:03;10.28;74.48
71627;DHT22;59475;52.464;13.590;2023-02-23T10:42:30;10.51;73.58
71627;DHT22;59475;52.464;13.590;2023-02-23T10:44:57;10.68;73.12
71627;DHT22;59475;52.464;13.590;2023-02-23T10:47:28;10.60;74.05
71627;DHT22;59475;52.464;13.590;2023-02-23T10:49:56;10.47;74.07
71627;DHT22;59475;52.464;13.590;2023-02-23T10:54:49;10.77;74.33
71627;DHT22;59475;52.464;13.590;2023-02-23T11:02:33;10.65;74.63
71627;DHT22;59475;52.464;13.590;2023-02-23T11:05:01;10.51;74.93
71627;DHT22;59475;52.464;13.590;2023-02-23T11:07:31;10.51;74.87
71627;DHT22;59475;52.464;13.590;2023-02-23T11:10:24;10.81;74.51
71627;DHT22;59475;52.464;13.590;2023-02-23T11:12:50;10.77;74.15
71627;DHT22;59475;52.464;13.590;2023-02-23T11:15:29;10.96;74.62
71627;DHT22;59475;52.464;13.590;2023-02-23T11:18:00;11.06;74.15
71627;DHT22;59475;52.464;13.590;2023-02-23T11:20:30;11.11;73.83
71627;DHT22;59475;52.464;13.590;2023-02-23T11:23:18;11.04;74.33
71627;DHT22;59475;52.464;13.590;2023-02-23T11:25:45;11.16;73.88
71627;DHT22;59475;52.464;13.590;2023-02-23T11:28:19;11.32;73.58
71627;DHT22;59475;52.464;13.590;2023-02-23T11:30:47;11.46;73.41
71627;DHT22;59475;52.464;13.590;2023-02-23T11:33:20;11.61;72.74
71627;DHT22;59475;52.464;13.590;2023-02-23T11:35:57;11.74;72.72
71627;DHT22;59475;52.464;13.590;2023-02-23T11:38:26;11.81;73.04
71627;DHT22;59475;52.464;13.590;2023-02-23T11:40:59;11.73;73.36
71627;DHT22;59475;52.464;13.590;2023-02-23T11:43:25;11.61;73.00
71627;DHT22;59475;52.464;13.590;2023-02-23T11:45:53;11.56;74.06
71627;DHT22;59475;52.464;13.590;2023-02-23T11:48:25;11.64;74.10
71627;DHT22;59475;52.464;13.590;2023-02-23T11:50:52;11.64;73.97
71627;DHT22;59475;52.464;13.590;2023-02-23T11:53:28;11.63;74.08
71627;DHT22;59475;52.464;13.590;2023-02-23T11:55:58;11.54;74.36
71627;DHT22;59475;52.464;13.590;2023-02-23T11:58:47;11.49;74.53
71627;DHT22;59475;52.464;13.590;2023-02-23T12:01:16;11.69;74.60
71627;DHT22;59475;52.464;13.590;2023-02-23T12:03:53;11.75;74.12
71627;DHT22;59475;52.464;13.590;2023-02-23T12:06:36;11.87;74.12
71627;DHT22;59475;52.464;13.590;2023-02-23T12:09:25;11.87;73.51
71627;DHT22;59475;52.464;13.590;2023-02-23T12:11:57;11.98;74.08
71627;DHT22;59475;52.464;13.590;2023-02-23T12:14:30;11.95;73.82
71627;DHT22;59475;52.464;13.590;2023-02-23T12:17:05;11.91;74.18
71627;DHT22;59475;52.464;13.590;2023-02-23T12:19:36;11.94;74.87
71627;DHT22;59475;52.464;13.590;2023-02-23T12:24:55;12.11;74.17
71627;DHT22;59475;52.464;13.590;2023-02-23T12:27:43;12.01;74.32
71627;DHT22;59475;52.464;13.590;2023-02-23T12:30:17;12.04;74.14
71627;DHT22;59475;52.464;13.590;2023-02-23T12:32:48;11.81;74.90
71627;DHT22;59475;52.464;13.590;2023-02-23T12:41:12;11.74;75.37
71627;DHT22;59475;52.464;13.590;2023-02-23T12:43:49;11.71;75.52
71627;DHT22;59475;52.464;13.590;2023-02-23T12:46:36;11.75;75.97
71627;DHT22;59475;52.464;13.590;2023-02-23T12:49:18;11.89;75.17
71627;DHT22;59475;52.464;13.590;2023-02-23T12:51:49;11.89;75.67
71627;DHT22;59475;52.464;13.590;2023-02-23T12:54:16;11.91;75.42
71627;DHT22;59475;52.464;13.590;2023-02-23T12:56:53;11.99;75.04
71627;DHT22;59475;52.464;13.590;2023-02-23T13:12:39;11.60;76.84
71627;DHT22;59475;52.464;13.590;2023-02-23T13:15:40;11.70;76.86
71627;DHT22;59475;52.464;13.590;2023-02-23T13:24:00;11.67;77.07
71627;DHT22;59475;52.464;13.590;2023-02-23T13:26:51;11.69;77.13
71627;DHT22;59475;52.464;13.590;2023-02-23T13:29:37;11.54;77.16
71627;DHT22;59475;52.464;13.590;2023-02-23T13:32:09;11.53;77.81
71627;DHT22;59475;52.464;13.590;2023-02-23T13:34:57;11.54;77.09
71627;DHT22;59475;52.464;13.590;2023-02-23T13:37:32;11.50;76.99
71627;DHT22;59475;52.464;13.590;2023-02-23T13:42:47;11.56;77.14
71627;DHT22;59475;52.464;13.590;2023-02-23T13:45:35;11.57;77.40
71627;DHT22;59475;52.464;13.590;2023-02-23T13:48:26;11.59;77.16
71627;DHT22;59475;52.464;13.590;2023-02-23T13:51:07;11.51;77.05
71627;DHT22;59475;52.464;13.590;2023-02-23T13:53:41;11.51;76.92
71627;DHT22;59475;52.464;13.590;2023-02-23T13:56:17;11.44;77.68
71627;DHT22;59475;52.464;13.590;2023-02-23T13:59:07;11.43;77.82
71627;DHT22;59475;52.464;13.590;2023-02-23T14:01:43;11.37;77.60
71627;DHT22;59475;52.464;13.590;2023-02-23T14:04:25;11.46;77.76
71627;DHT22;59475;52.464;13.590;2023-02-23T14:09:36;11.34;78.12
71627;DHT22;59475;52.464;13.590;2023-02-23T14:22:35;11.16;78.92
71627;DHT22;59475;52.464;13.590;2023-02-23T14:28:02;11.08;79.32
71627;DHT22;59475;52.464;13.590;2023-02-23T14:30:49;11.05;79.45
71627;DHT22;59475;52.464;13.590;2023-02-23T14:41:56;10.95;80.47
71627;DHT22;59475;52.464;13.590;2023-02-23T14:44:39;10.84;81.08
71627;DHT22;59475;52.464;13.590;2023-02-23T14:47:11;10.77;81.42
71627;DHT22;59475;52.464;13.590;2023-02-23T14:49:45;10.75;81.75
71627;DHT22;59475;52.464;13.590;2023-02-23T14:52:23;10.74;81.73
71627;DHT22;59475;52.464;13.590;2023-02-23T14:54:50;10.64;82.03
71627;DHT22;59475;52.464;13.590;2023-02-23T14:59:44;10.60;82.66
71627;DHT22;59475;52.464;13.590;2023-02-23T15:02:22;10.51;82.95
71627;DHT22;59475;52.464;13.590;2023-02-23T15:04:48;10.53;83.12
71627;DHT22;59475;52.464;13.590;2023-02-23T15:07:21;10.53;83.28
71627;DHT22;59475;52.464;13.590;2023-02-23T15:09:54;10.41;83.52
71627;DHT22;59475;52.464;13.590;2023-02-23T15:12:22;10.41;83.87
71627;DHT22;59475;52.464;13.590;2023-02-23T15:14:51;10.40;83.79
71627;DHT22;59475;52.464;13.590;2023-02-23T15:17:21;10.40;83.77
71627;DHT22;59475;52.464;13.590;2023-02-23T15:19:53;10.34;84.02
71627;DHT22;59475;52.464;13.590;2023-02-23T15:22:24;10.33;84.20
71627;DHT22;59475;52.464;13.590;2023-02-23T15:24:50;10.32;84.45
71627;DHT22;59475;52.464;13.590;2023-02-23T15:27:18;10.32;84.31
71627;DHT22;59475;52.464;13.590;2023-02-23T15:29:44;10.29;84.91
71627;DHT22;59475;52.464;13.590;2023-02-23T15:32:22;10.20;85.81
71627;DHT22;59475;52.464;13.590;2023-02-23T15:34:50;10.09;86.41
71627;DHT22;59475;52.464;13.590;2023-02-23T15:39:53;10.01;87.37
71627;DHT22;59475;52.464;13.590;2023-02-23T15:42:24;9.92;87.36
71627;DHT22;59475;52.464;13.590;2023-02-23T15:45:15;9.91;88.45
71627;DHT22;59475;52.464;13.590;2023-02-23T15:47:44;9.82;88.61
71627;DHT22;59475;52.464;13.590;2023-02-23T15:50:16;9.64;89.39
71627;DHT22;59475;52.464;13.590;2023-02-23T15:52:49;9.64;89.52
71627;DHT22;59475;52.464;13.590;2023-02-23T15:55:36;9.57;89.50
71627;DHT22;59475;52.464;13.590;2023-02-23T15:58:17;9.51;89.47
71627;DHT22;59475;52.464;13.590;2023-02-23T16:00:57;9.46;89.48
71627;DHT22;59475;52.464;13.590;2023-02-23T16:03:30;9.43;89.77
71627;DHT22;59475;52.464;13.590;2023-02-23T16:06:23;9.37;90.00
71627;DHT22;59475;52.464;13.590;2023-02-23T16:08:57;9.31;90.03
71627;DHT22;59475;52.464;13.590;2023-02-23T16:11:31;9.33;90.43
71627;DHT22;59475;52.464;13.590;2023-02-23T16:14:00;9.26;90.60
71627;DHT22;59475;52.464;13.590;2023-02-23T16:16:26;9.17;90.91
71627;DHT22;59475;52.464;13.590;2023-02-23T16:18:54;9.15;90.69
71627;DHT22;59475;52.464;13.590;2023-02-23T16:21:29;9.12;90.90
71627;DHT22;59475;52.464;13.590;2023-02-23T16:23:56;9.03;90.86
71627;DHT22;59475;52.464;13.590;2023-02-23T16:26:46;9.00;91.04
71627;DHT22;59475;52.464;13.590;2023-02-23T16:29:18;8.92;91.30
71627;DHT22;59475;52.464;13.590;2023-02-23T16:31:53;8.92;91.39
71627;DHT22;59475;52.464;13.590;2023-02-23T16:34:24;8.89;91.57
71627;DHT22;59475;52.464;13.590;2023-02-23T16:36:54;8.83;91.51
71627;DHT22;59475;52.464;13.590;2023-02-23T16:39:20;8.82;91.75
71627;DHT22;59475;52.464;13.590;2023-02-23T16:41:49;8.75;91.94
71627;DHT22;59475;52.464;13.590;2023-02-23T16:44:19;8.73;91.92
71627;DHT22;59475;52.464;13.590;2023-02-23T16:49:26;8.69;92.07
71627;DHT22;59475;52.464;13.590;2023-02-23T16:51:55;8.68;91.77
71627;DHT22;59475;52.464;13.590;2023-02-23T16:54:20;8.62;91.99
71627;DHT22;59475;52.464;13.590;2023-02-23T16:56:46;8.60;92.04
71627;DHT22;59475;52.464;13.590;2023-02-23T16:59:14;8.57;92.16
71627;DHT22;59475;52.464;13.590;2023-02-23T17:01:40;8.61;92.24
71627;DHT22;59475;52.464;13.590;2023-02-23T17:04:12;8.57;92.43
71627;DHT22;59475;52.464;13.590;2023-02-23T17:06:42;8.54;92.52
71627;DHT22;59475;52.464;13.590;2023-02-23T17:09:08;8.53;92.42
71627;DHT22;59475;52.464;13.590;2023-02-23T17:11:34;8.48;92.65
71627;DHT22;59475;52.464;13.590;2023-02-23T17:13:59;8.48;92.82
71627;DHT22;59475;52.464;13.590;2023-02-23T17:16:25;8.53;93.10
71627;DHT22;59475;52.464;13.590;2023-02-23T17:18:50;8.45;92.96
71627;DHT22;59475;52.464;13.590;2023-02-23T17:21:17;8.43;93.13
71627;DHT22;59475;52.464;13.590;2023-02-23T17:23:49;8.41;93.24
71627;DHT22;59475;52.464;13.590;2023-02-23T17:26:19;8.40;93.41
71627;DHT22;59475;52.464;13.590;2023-02-23T17:28:45;8.41;93.61
71627;DHT22;59475;52.464;13.590;2023-02-23T17:31:12;8.34;93.95
71627;DHT22;59475;52.464;13.590;2023-02-23T17:33:40;8.36;94.22
71627;DHT22;59475;52.464;13.590;2023-02-23T17:36:08;8.34;94.34
71627;DHT22;59475;52.464;13.590;2023-02-23T17:38:34;8.37;94.27
71627;DHT22;59475;52.464;13.590;2023-02-23T17:41:01;8.36;94.17
71627;DHT22;59475;52.464;13.590;2023-02-23T17:43:28;8.33;94.45
71627;DHT22;59475;52.464;13.590;2023-02-23T17:45:55;8.33;94.31
71627;DHT22;59475;52.464;13.590;2023-02-23T17:48:21;8.34;94.51
71627;DHT22;59475;52.464;13.590;2023-02-23T17:50:47;8.36;94.46
71627;DHT22;59475;52.464;13.590;2023-02-23T17:53:13;8.34;94.49
71627;DHT22;59475;52.464;13.590;2023-02-23T17:55:38;8.38;94.64
71627;DHT22;59475;52.464;13.590;2023-02-23T17:58:05;8.33;94.80
71627;DHT22;59475;52.464;13.590;2023-02-23T18:00:31;8.34;94.81
71627;DHT22;59475;52.464;13.590;2023-02-23T18:03:02;8.34;94.66